Time;durP1;ratioP1;P1;durP2;ratioP2;P2;SDS_P1;SDS_P2;PMS_P1;PMS_P2;Temp;Humidity;BMP_temperature;BMP_pressure;BME280_temperature;BME280_humidity;BME280_pressure;Samples;Min_cycle;Max_cycle;Signal;HPM_P1;HPM_P2
2023/10/25 00:01:55;;;;;;;0.77;0.77;;;;;;;5.86;74.10;99934.66;5008166;28;20030;-71
2023/10/25 00:04:21;;;;;;;0.40;0.40;;;;;;;5.84;74.35;99926.03;5008123;28;20505;-70
2023/10/25 00:06:46;;;;;;;0.82;0.52;;;;;;;5.83;74.52;99935.47;5008169;28;20030;-72
2023/10/25 00:09:11;;;;;;;0.68;0.68;;;;;;;5.87;74.26;99933.78;5008180;28;20026;-72
2023/10/25 00:11:37;;;;;;;2.63;0.85;;;;;;;5.87;74.27;99940.63;5006534;28;20027;-71
2023/10/25 00:14:03;;;;;;;0.50;0.50;;;;;;;5.95;73.95;99933.81;5007816;28;20422;-71
2023/10/25 00:16:28;;;;;;;0.47;0.47;;;;;;;5.90;74.19;99938.06;5007822;28;20105;-72
2023/10/25 00:18:54;;;;;;;0.77;0.75;;;;;;;5.85;74.42;99927.75;5006725;28;20022;-71
2023/10/25 00:21:19;;;;;;;1.15;0.63;;;;;;;5.81;74.46;99934.59;5007555;28;20056;-70
2023/10/25 00:23:45;;;;;;;1.67;0.60;;;;;;;5.76;74.69;99935.44;5008023;28;20085;-72
2023/10/25 00:26:10;;;;;;;1.15;1.15;;;;;;;5.81;74.99;99937.19;5007713;28;20089;-71
2023/10/25 00:28:37;;;;;;;0.90;0.90;;;;;;;5.89;74.55;99924.34;5007717;28;20540;-71
2023/10/25 00:31:02;;;;;;;0.60;0.60;;;;;;;5.82;74.94;99930.31;5007043;28;20030;-71
2023/10/25 00:33:28;;;;;;;0.40;0.40;;;;;;;5.75;75.19;99919.13;5006021;28;20023;-71
2023/10/25 00:35:53;;;;;;;0.40;0.40;;;;;;;5.72;75.39;99929.41;5007363;28;20026;-71
2023/10/25 00:38:18;;;;;;;1.30;0.60;;;;;;;5.88;74.92;99935.50;5007588;28;20109;-71
2023/10/25 00:40:44;;;;;;;0.50;0.50;;;;;;;5.89;74.96;99932.06;5007376;28;20015;-71
2023/10/25 00:43:20;;;;;;;0.50;0.50;;;;;;;5.94;75.14;99932.94;5007330;28;20026;-71
2023/10/25 00:46:00;;;;;;;0.50;0.50;;;;;;;5.88;75.00;99953.53;5007247;28;20022;-71
2023/10/25 00:48:28;;;;;;;0.73;0.70;;;;;;;5.85;75.23;99924.34;5007215;28;20514;-71
2023/10/25 00:50:54;;;;;;;0.40;0.40;;;;;;;5.99;74.77;99939.84;5007234;28;20042;-72
2023/10/25 00:53:20;;;;;;;0.85;0.77;;;;;;;5.91;75.06;99932.09;5005978;28;20054;-70
2023/10/25 00:55:46;;;;;;;0.40;0.40;;;;;;;5.98;74.71;99922.63;5007235;28;20058;-71
2023/10/25 00:58:12;;;;;;;0.40;0.40;;;;;;;6.04;74.56;99936.44;5007142;28;20425;-70
2023/10/25 01:00:38;;;;;;;0.40;0.40;;;;;;;6.00;75.15;99946.69;5006919;28;20080;-71
2023/10/25 01:03:07;;;;;;;0.63;0.63;;;;;;;5.88;75.50;99940.66;5006996;28;20027;-71
2023/10/25 01:05:32;;;;;;;0.50;0.50;;;;;;;5.89;75.61;99932.06;5006346;28;20573;-71
2023/10/25 01:07:58;;;;;;;0.50;0.50;;;;;;;5.91;75.41;99940.66;5007156;28;20037;-71
2023/10/25 01:10:23;;;;;;;0.40;0.40;;;;;;;6.00;75.26;99946.69;5006928;28;20103;-70
2023/10/25 01:12:49;;;;;;;1.52;0.82;;;;;;;5.89;75.60;99944.09;5006791;28;20090;-72
2023/10/25 01:15:14;;;;;;;1.67;0.60;;;;;;;5.79;75.85;99935.47;5005489;28;20023;-71
2023/10/25 01:17:39;;;;;;;0.50;0.50;;;;;;;5.89;75.59;99942.38;5006742;28;20030;-71
2023/10/25 01:20:06;;;;;;;0.40;0.40;;;;;;;5.92;75.61;99965.59;5005430;28;20049;-72
2023/10/25 01:22:31;;;;;;;0.40;0.40;;;;;;;5.96;74.91;99948.41;5006598;28;20082;-72
2023/10/25 01:24:57;;;;;;;0.60;0.60;;;;;;;5.94;75.07;99944.97;5006696;28;20027;-71
2023/10/25 01:27:22;;;;;;;0.40;0.40;;;;;;;5.87;75.82;99932.91;5006619;28;20077;-71
2023/10/25 01:29:47;;;;;;;1.23;0.82;;;;;;;5.90;75.66;99928.63;5006505;28;20023;-72
2023/10/25 01:32:13;;;;;;;0.52;0.50;;;;;;;6.05;74.78;99927.00;5006376;28;20030;-71
2023/10/25 01:34:38;;;;;;;0.47;0.47;;;;;;;5.95;74.96;99926.06;5006214;28;20030;-72
2023/10/25 01:37:03;;;;;;;0.40;0.40;;;;;;;5.87;75.64;99933.78;5006335;28;20019;-71
2023/10/25 01:39:29;;;;;;;0.60;0.60;;;;;;;5.89;75.62;99926.06;5005101;28;20168;-71
2023/10/25 01:41:54;;;;;;;0.50;0.50;;;;;;;5.92;75.23;99921.78;5005109;28;20041;-72
2023/10/25 01:44:19;;;;;;;0.50;0.50;;;;;;;5.89;75.57;99921.78;5006275;28;20022;-72
2023/10/25 01:46:45;;;;;;;2.03;1.48;;;;;;;5.83;75.72;99926.91;5004878;28;20501;-72
2023/10/25 01:49:10;;;;;;;0.50;0.50;;;;;;;5.83;75.67;99924.34;5006091;28;20026;-71
2023/10/25 01:51:35;;;;;;;0.50;0.50;;;;;;;5.82;75.74;99922.59;5006067;28;20363;-71
2023/10/25 01:54:01;;;;;;;0.38;0.38;;;;;;;5.79;76.04;99926.03;5006158;28;20050;-70
2023/10/25 01:56:26;;;;;;;0.40;0.40;;;;;;;5.90;75.70;99912.31;5006113;28;20026;-70
2023/10/25 01:58:51;;;;;;;0.75;0.52;;;;;;;5.92;75.63;99914.06;5005098;28;20029;-71
2023/10/25 02:01:17;;;;;;;0.40;0.40;;;;;;;5.81;76.10;99920.88;5006352;28;20026;-71
2023/10/25 02:03:42;;;;;;;0.40;0.40;;;;;;;5.77;76.30;99908.81;5006053;28;20466;-71
2023/10/25 02:06:14;;;;;;;0.40;0.40;;;;;;;5.74;76.51;99901.97;5004593;28;20022;-71
2023/10/25 02:08:41;;;;;;;0.50;0.50;;;;;;;5.86;76.30;99908.00;5005923;28;20041;-71
2023/10/25 02:11:07;;;;;;;0.55;0.55;;;;;;;5.73;76.68;99901.97;5005848;28;20030;-72
2023/10/25 02:13:32;;;;;;;0.50;0.50;;;;;;;5.74;76.94;99906.25;5005688;28;20030;-71
2023/10/25 02:15:58;;;;;;;0.65;0.60;;;;;;;5.76;77.04;99904.53;5005638;28;20083;-70
2023/10/25 02:18:23;;;;;;;1.10;0.63;;;;;;;5.76;77.29;99914.84;5005035;28;20046;-71
2023/10/25 02:20:49;;;;;;;0.73;0.60;;;;;;;5.78;77.18;99923.44;5005628;28;20122;-71
2023/10/25 02:23:14;;;;;;;0.50;0.50;;;;;;;5.78;77.21;99915.72;5005349;28;20030;-71
2023/10/25 02:25:39;;;;;;;0.40;0.40;;;;;;;5.76;77.23;99897.69;5005785;28;20026;-71
2023/10/25 02:28:05;;;;;;;0.90;0.60;;;;;;;5.72;77.22;99898.50;5005889;28;20037;-72
2023/10/25 02:30:30;;;;;;;0.50;0.50;;;;;;;5.78;77.32;99898.53;5004482;28;20031;-71
2023/10/25 02:32:56;;;;;;;0.50;0.50;;;;;;;5.76;77.48;99902.84;5004429;28;20061;-71
2023/10/25 02:35:21;;;;;;;0.60;0.60;;;;;;;5.75;77.01;99892.53;5004507;28;20026;-72
2023/10/25 02:37:46;;;;;;;0.55;0.55;;;;;;;5.74;77.63;99912.25;5005888;28;20036;-72
2023/10/25 02:40:12;;;;;;;0.50;0.50;;;;;;;5.63;77.58;99883.91;5005688;28;20486;-70
2023/10/25 02:42:40;;;;;;;0.40;0.40;;;;;;;5.73;77.61;99896.81;5005612;28;20037;-70
2023/10/25 02:45:06;;;;;;;0.47;0.47;;;;;;;5.77;77.46;99901.09;5005631;28;20026;-71
2023/10/25 02:47:32;;;;;;;1.63;0.60;;;;;;;5.86;77.14;99913.16;5005498;28;20485;-71
2023/10/25 02:49:57;;;;;;;0.47;0.47;;;;;;;5.76;77.42;99900.25;5005477;28;20101;-71
2023/10/25 02:52:23;;;;;;;0.40;0.40;;;;;;;5.74;77.61;99885.63;5004438;28;20510;-71
2023/10/25 02:54:48;;;;;;;1.02;0.98;;;;;;;5.70;77.81;99890.78;5005512;28;20168;-72
2023/10/25 02:57:13;;;;;;;0.43;0.43;;;;;;;5.74;77.76;99896.81;5005671;28;20034;-71
2023/10/25 02:59:39;;;;;;;1.40;0.70;;;;;;;5.74;77.92;99904.53;5005204;28;20030;-71
2023/10/25 03:02:04;;;;;;;1.05;1.00;;;;;;;5.76;77.74;99887.38;5005375;28;20030;-71
2023/10/25 03:04:30;;;;;;;0.50;0.50;;;;;;;5.75;77.87;99889.94;5005441;28;20097;-72
2023/10/25 03:06:55;;;;;;;0.77;0.77;;;;;;;5.68;78.15;99887.38;5004246;28;20475;-71
2023/10/25 03:09:20;;;;;;;0.40;0.40;;;;;;;5.75;77.79;99890.78;5004157;28;20486;-71
2023/10/25 03:11:46;;;;;;;0.57;0.57;;;;;;;5.72;77.83;99892.53;5003956;28;20106;-71
2023/10/25 03:14:11;;;;;;;1.33;0.50;;;;;;;5.65;78.19;99894.22;5005389;28;20033;-74
2023/10/25 03:16:36;;;;;;;0.45;0.45;;;;;;;5.62;78.39;99882.19;5004082;28;20037;-70
2023/10/25 03:19:02;;;;;;;0.55;0.55;;;;;;;5.70;78.41;99885.63;5003931;28;20027;-71
2023/10/25 03:21:27;;;;;;;0.50;0.50;;;;;;;5.70;78.27;99883.06;5005209;28;20043;-70
2023/10/25 03:23:52;;;;;;;0.65;0.65;;;;;;;5.66;78.49;99888.19;5005117;28;20430;-71
2023/10/25 03:26:18;;;;;;;0.43;0.43;;;;;;;5.58;78.78;99873.59;5005355;28;20056;-71
2023/10/25 03:28:43;;;;;;;0.55;0.55;;;;;;;5.63;78.84;99893.34;5006268;28;20086;-71
2023/10/25 03:31:09;;;;;;;0.40;0.40;;;;;;;5.69;78.46;99889.06;5007264;28;20104;-70
2023/10/25 03:33:35;;;;;;;1.83;0.77;;;;;;;5.67;78.94;99900.22;5008733;28;20113;-71
2023/10/25 03:36:01;;;;;;;0.77;0.77;;;;;;;5.59;79.13;99895.06;5008741;28;20030;-71
2023/10/25 03:38:26;;;;;;;0.47;0.47;;;;;;;5.61;78.82;99890.75;5008604;28;20146;-71
2023/10/25 03:41:05;;;;;;;1.58;1.40;;;;;;;5.52;79.33;99881.28;5008716;28;20087;-73
2023/10/25 03:43:31;;;;;;;0.93;0.70;;;;;;;5.56;79.37;99874.41;5008631;28;20030;-71
2023/10/25 03:46:10;;;;;;;0.77;0.77;;;;;;;5.60;78.87;99873.59;5008470;28;20035;-72
2023/10/25 03:48:36;;;;;;;0.73;0.70;;;;;;;5.63;79.18;99877.88;5008580;28;20114;-72
2023/10/25 03:51:04;;;;;;;0.60;0.60;;;;;;;5.57;79.22;99866.69;5008376;28;20096;-71
2023/10/25 03:53:29;;;;;;;0.43;0.43;;;;;;;5.63;78.89;99873.59;5006840;28;20096;-70
2023/10/25 03:55:55;;;;;;;0.40;0.40;;;;;;;5.57;79.08;99883.88;5008324;28;20475;-72
2023/10/25 03:58:22;;;;;;;0.40;0.40;;;;;;;5.55;79.28;99862.41;5006814;28;20320;-72
2023/10/25 04:00:48;;;;;;;0.80;0.80;;;;;;;5.51;79.47;99874.41;5008171;28;20027;-71
2023/10/25 04:03:14;;;;;;;0.60;0.60;;;;;;;5.50;79.44;99858.94;5008231;28;20037;-64
2023/10/25 04:05:39;;;;;;;0.32;0.32;;;;;;;5.46;79.85;99858.94;5008147;28;20134;-71
2023/10/25 04:08:05;;;;;;;0.60;0.60;;;;;;;5.45;79.79;99848.63;5008193;28;20026;-74
2023/10/25 04:10:30;;;;;;;1.13;1.10;;;;;;;5.40;79.84;99846.03;5008117;28;20031;-73
2023/10/25 04:12:55;;;;;;;0.43;0.43;;;;;;;5.33;79.92;99846.88;5007363;28;20034;-70
2023/10/25 04:15:21;;;;;;;0.60;0.55;;;;;;;5.43;79.64;99846.06;5007926;28;20072;-71
2023/10/25 04:17:47;;;;;;;0.40;0.40;;;;;;;5.43;79.70;99855.50;5007901;28;20056;-71
2023/10/25 04:20:12;;;;;;;0.47;0.47;;;;;;;5.35;79.96;99868.34;5007543;28;20026;-72
2023/10/25 04:22:37;;;;;;;0.50;0.50;;;;;;;5.39;79.80;99870.06;5007873;28;20060;-71
2023/10/25 04:25:03;;;;;;;0.40;0.40;;;;;;;5.30;79.72;99855.44;5007777;28;20099;-70
2023/10/25 04:27:29;;;;;;;0.70;0.70;;;;;;;5.30;79.93;99855.44;5007772;28;20181;-72
2023/10/25 04:29:55;;;;;;;0.63;0.60;;;;;;;5.31;79.93;99852.03;5007564;28;20029;-65
2023/10/25 04:32:21;;;;;;;0.57;0.57;;;;;;;5.22;80.42;99867.44;5007683;28;20049;-65
2023/10/25 04:34:46;;;;;;;0.55;0.55;;;;;;;5.19;80.42;99867.41;5007573;28;20022;-71
2023/10/25 04:37:13;;;;;;;0.68;0.68;;;;;;;5.18;80.31;99860.53;5006915;28;20022;-69
2023/10/25 04:39:39;;;;;;;0.40;0.40;;;;;;;5.15;80.38;99863.97;5004971;28;20022;-70
2023/10/25 04:42:04;;;;;;;0.40;0.40;;;;;;;5.12;80.63;99855.34;5007030;28;20158;-69
2023/10/25 04:44:31;;;;;;;0.63;0.63;;;;;;;5.20;80.51;99856.25;5006969;28;20023;-71
2023/10/25 04:46:57;;;;;;;0.88;0.77;;;;;;;5.19;79.77;99854.56;5006018;28;20460;-71
2023/10/25 04:49:23;;;;;;;0.50;0.50;;;;;;;5.08;80.56;99864.75;5007390;28;20026;-70
2023/10/25 04:51:48;;;;;;;0.50;0.50;;;;;;;5.10;80.42;99857.91;5007237;28;20030;-70
2023/10/25 04:54:13;;;;;;;0.55;0.55;;;;;;;4.94;80.95;99841.53;5007038;28;20022;-70
2023/10/25 04:56:39;;;;;;;0.60;0.60;;;;;;;5.00;80.92;99859.59;5006969;28;20093;-71
2023/10/25 04:59:04;;;;;;;0.40;0.40;;;;;;;4.99;80.97;99865.59;5005869;28;20023;-70
2023/10/25 05:01:30;;;;;;;0.40;0.40;;;;;;;5.01;80.68;99847.59;5005800;28;20022;-71
2023/10/25 05:03:55;;;;;;;0.50;0.50;;;;;;;4.90;81.29;99844.97;5007029;28;20038;-71
2023/10/25 05:06:21;;;;;;;0.73;0.60;;;;;;;4.96;80.55;99840.72;5007056;28;20030;-71
2023/10/25 05:08:46;;;;;;;0.40;0.40;;;;;;;4.92;81.27;99856.97;5006858;28;20134;-71
2023/10/25 05:11:15;;;;;;;0.40;0.40;;;;;;;4.73;81.75;99858.56;5006951;28;20061;-71
2023/10/25 05:13:41;;;;;;;0.40;0.40;;;;;;;4.73;81.97;99847.44;5006826;28;20018;-73
2023/10/25 05:16:07;;;;;;;0.57;0.57;;;;;;;4.81;81.53;99866.31;5006984;28;20393;-70
2023/10/25 05:18:33;;;;;;;0.65;0.65;;;;;;;4.57;82.17;99852.44;5005742;28;20022;-70
2023/10/25 05:21:00;;;;;;;0.50;0.50;;;;;;;4.68;81.98;99875.69;5006741;28;20057;-69
2023/10/25 05:23:32;;;;;;;0.70;0.70;;;;;;;4.46;82.49;99860.94;5006832;28;20089;-69
2023/10/25 05:26:00;;;;;;;0.60;0.60;;;;;;;4.33;83.36;99869.41;5006841;28;20034;-67
2023/10/25 05:28:26;;;;;;;0.40;0.40;;;;;;;4.24;83.96;99853.91;5005431;28;20030;-68
2023/10/25 05:30:53;;;;;;;0.60;0.60;;;;;;;4.10;84.41;99834.09;5006562;28;20032;-69
2023/10/25 05:33:19;;;;;;;0.47;0.47;;;;;;;4.19;84.62;99857.31;5006282;28;20053;-68
2023/10/25 05:35:45;;;;;;;0.60;0.60;;;;;;;4.21;84.84;99849.59;5005281;28;20034;-69
2023/10/25 05:38:11;;;;;;;0.40;0.40;;;;;;;4.15;85.14;99854.69;5006697;28;20033;-69
2023/10/25 05:40:37;;;;;;;0.50;0.50;;;;;;;4.14;85.57;99858.13;5004826;28;20054;-69
2023/10/25 05:43:05;;;;;;;0.68;0.68;;;;;;;4.09;86.16;99846.06;5006126;28;20032;-69
2023/10/25 05:45:30;;;;;;;0.85;0.85;;;;;;;4.08;86.27;99846.94;5005007;28;20025;-70
2023/10/25 05:47:56;;;;;;;3.85;1.10;;;;;;;4.00;86.92;99845.13;5005092;28;20023;-70
2023/10/25 05:50:22;;;;;;;1.20;0.68;;;;;;;3.97;87.29;99845.97;5021606;28;20120;-69
2023/10/25 05:52:47;;;;;;;0.43;0.43;;;;;;;3.99;87.61;99843.41;5006002;28;20030;-71
2023/10/25 05:55:14;;;;;;;0.40;0.40;;;;;;;3.88;88.01;99840.75;5006298;28;20045;-70
2023/10/25 05:57:40;;;;;;;0.60;0.60;;;;;;;3.95;88.23;99845.06;5006192;28;20108;-70
2023/10/25 06:00:06;;;;;;;0.70;0.70;;;;;;;3.84;88.79;99835.56;5006030;28;20462;-69
2023/10/25 06:02:33;;;;;;;0.40;0.40;;;;;;;3.85;89.20;99838.97;5006370;28;20018;-69
2023/10/25 06:05:00;;;;;;;0.50;0.50;;;;;;;3.89;89.54;99837.31;5006221;28;20059;-70
2023/10/25 06:07:26;;;;;;;0.43;0.43;;;;;;;3.82;89.84;99827.00;4988761;28;20025;-71
2023/10/25 06:09:52;;;;;;;0.40;0.40;;;;;;;3.92;90.04;99850.19;5004713;28;20019;-72
2023/10/25 06:12:17;;;;;;;0.88;0.80;;;;;;;3.89;90.30;99842.44;5006017;28;20018;-71
2023/10/25 06:14:43;;;;;;;0.75;0.73;;;;;;;3.96;90.39;99850.22;5004674;28;20019;-70
2023/10/25 06:17:08;;;;;;;0.82;0.82;;;;;;;3.94;90.50;99841.66;5006052;28;20022;-70
2023/10/25 06:19:34;;;;;;;0.50;0.50;;;;;;;3.97;90.19;99841.69;5004742;28;20022;-71
2023/10/25 06:21:59;;;;;;;0.50;0.50;;;;;;;3.94;90.72;99841.66;5004243;28;20054;-70
2023/10/25 06:24:24;;;;;;;0.85;0.65;;;;;;;3.93;91.18;99834.78;5005611;28;20081;-70
2023/10/25 06:26:50;;;;;;;0.47;0.47;;;;;;;3.87;91.67;99844.13;5005931;28;20027;-70
2023/10/25 06:29:15;;;;;;;0.95;0.70;;;;;;;3.88;91.86;99835.59;5005051;28;20359;-72
2023/10/25 06:31:41;;;;;;;0.45;0.45;;;;;;;3.84;92.25;99845.84;5005623;28;20026;-71
2023/10/25 06:34:06;;;;;;;0.50;0.50;;;;;;;3.81;92.16;99855.22;5005676;28;20019;-70
2023/10/25 06:36:33;;;;;;;7.97;1.50;;;;;;;3.79;92.63;99846.63;5004537;28;20092;-70
2023/10/25 06:39:04;;;;;;;0.75;0.75;;;;;;;3.79;92.58;99849.19;5005891;28;20078;-70
2023/10/25 06:41:30;;;;;;;0.82;0.82;;;;;;;3.79;92.67;99869.75;4988182;28;20049;-70
2023/10/25 06:43:55;;;;;;;0.40;0.40;;;;;;;3.87;92.38;99837.31;5004296;28;20475;-70
2023/10/25 06:46:21;;;;;;;0.40;0.40;;;;;;;3.80;92.55;99849.22;5004537;28;20030;-70
2023/10/25 06:48:47;;;;;;;0.65;0.65;;;;;;;3.82;93.10;99841.53;5005801;28;20078;-69
2023/10/25 06:51:13;;;;;;;0.65;0.65;;;;;;;3.82;92.83;99828.69;5004379;28;20023;-69
2023/10/25 06:53:39;;;;;;;0.95;0.73;;;;;;;3.73;93.40;99826.91;5005892;28;20477;-70
2023/10/25 06:56:05;;;;;;;0.75;0.60;;;;;;;3.77;93.50;99846.63;5004285;28;20493;-69
2023/10/25 06:58:31;;;;;;;0.40;0.40;;;;;;;3.84;93.23;99850.97;5004484;28;20037;-70
2023/10/25 07:00:58;;;;;;;0.60;0.60;;;;;;;3.76;93.57;99841.47;5004564;28;20022;-70
2023/10/25 07:03:31;;;;;;;2.65;1.40;;;;;;;3.76;94.04;99836.31;5006210;28;20091;-71
2023/10/25 07:05:59;;;;;;;0.50;0.50;;;;;;;3.70;93.92;99822.59;5009535;28;20507;-71
2023/10/25 07:08:25;;;;;;;0.40;0.40;;;;;;;3.64;93.69;99799.44;5009346;28;20026;-70
2023/10/25 07:10:50;;;;;;;0.50;0.50;;;;;;;3.70;94.14;99838.00;5007752;28;20029;-70
2023/10/25 07:13:16;;;;;;;0.60;0.60;;;;;;;3.63;94.51;99820.81;5009074;28;20026;-69
2023/10/25 07:15:41;;;;;;;4.15;1.48;;;;;;;3.65;94.92;99836.22;5007936;28;20038;-70
2023/10/25 07:18:06;;;;;;;1.17;1.08;;;;;;;3.63;95.03;99830.19;5009163;28;20033;-70
2023/10/25 07:20:32;;;;;;;0.80;0.80;;;;;;;3.80;94.43;99833.81;5008940;28;20050;-70
2023/10/25 07:22:57;;;;;;;1.10;1.05;;;;;;;3.70;94.96;99832.00;5009061;28;20033;-70
2023/10/25 07:25:23;;;;;;;0.90;0.90;;;;;;;3.75;94.98;99829.47;5008995;28;20033;-70
2023/10/25 07:27:48;;;;;;;0.57;0.57;;;;;;;3.73;95.47;99821.75;5007654;28;20030;-71
2023/10/25 07:30:14;;;;;;;3.00;2.80;;;;;;;3.77;95.44;99828.63;5007984;28;20019;-69
2023/10/25 07:32:40;;;;;;;1.23;1.13;;;;;;;3.72;95.59;99818.31;5007705;28;20030;-70
2023/10/25 07:35:06;;;;;;;5.40;1.75;;;;;;;3.80;95.63;99838.94;5008762;28;20025;-71
2023/10/25 07:37:31;;;;;;;3.35;1.65;;;;;;;3.69;96.21;99831.13;5008850;28;20033;-70
2023/10/25 07:39:57;;;;;;;0.70;0.70;;;;;;;3.70;95.68;99821.72;5007615;28;20463;-70
2023/10/25 07:42:22;;;;;;;1.45;1.20;;;;;;;3.71;95.97;99815.75;5008955;28;20033;-71
2023/10/25 07:44:48;;;;;;;2.88;1.00;;;;;;;3.74;96.45;99849.16;5008742;28;20030;-71
2023/10/25 07:47:14;;;;;;;0.68;0.68;;;;;;;3.63;97.12;99819.94;5008760;28;20101;-69
2023/10/25 07:49:45;;;;;;;2.40;1.10;;;;;;;3.69;96.90;99826.00;5008674;28;20037;-70
2023/10/25 07:52:10;;;;;;;1.08;1.00;;;;;;;3.81;96.40;99829.53;4991100;28;20018;-69
2023/10/25 07:54:36;;;;;;;1.25;1.15;;;;;;;3.65;97.00;99813.13;5008331;28;20030;-70
2023/10/25 07:57:02;;;;;;;0.68;0.68;;;;;;;3.74;96.57;99823.47;5008615;28;20018;-70
2023/10/25 07:59:27;;;;;;;1.75;0.80;;;;;;;3.88;95.99;99817.63;5008618;28;20086;-71
2023/10/25 08:01:54;;;;;;;0.75;0.75;;;;;;;3.79;96.45;99820.94;5008286;28;20029;-70
2023/10/25 08:04:19;;;;;;;0.88;0.88;;;;;;;3.83;96.18;99833.84;5007890;28;20030;-71
2023/10/25 08:06:45;;;;;;;0.57;0.57;;;;;;;3.81;97.00;99850.09;5008354;28;20027;-71
2023/10/25 08:09:10;;;;;;;1.33;1.23;;;;;;;3.79;97.06;99821.81;4990814;28;20463;-71
2023/10/25 08:11:37;;;;;;;1.00;1.00;;;;;;;3.83;96.61;99815.03;5007948;28;20078;-71
2023/10/25 08:14:03;;;;;;;1.08;0.85;;;;;;;3.79;97.06;99832.09;5007870;28;20029;-70
2023/10/25 08:16:29;;;;;;;0.85;0.85;;;;;;;3.88;97.02;99840.75;5006411;28;20026;-70
2023/10/25 08:18:54;;;;;;;0.43;0.43;;;;;;;3.85;97.33;99831.28;4990416;28;20025;-71
2023/10/25 08:21:19;;;;;;;1.45;1.35;;;;;;;3.80;97.53;99838.94;5007712;28;20046;-71
2023/10/25 08:23:45;;;;;;;1.17;1.08;;;;;;;3.89;97.27;99842.44;5007918;28;20030;-70
2023/10/25 08:26:11;;;;;;;0.50;0.50;;;;;;;3.86;97.63;99829.59;5006688;28;20026;-70
2023/10/25 08:28:37;;;;;;;0.45;0.45;;;;;;;3.96;97.04;99845.09;5006632;28;20438;-71
2023/10/25 08:31:12;;;;;;;0.93;0.93;;;;;;;3.88;97.07;99831.34;5007852;28;20026;-70
2023/10/25 08:33:37;;;;;;;0.60;0.60;;;;;;;3.94;96.89;99828.84;5006721;28;20022;-70
2023/10/25 08:36:04;;;;;;;0.98;0.80;;;;;;;4.04;96.59;99834.03;5006572;28;20114;-70
2023/10/25 08:38:29;;;;;;;0.50;0.50;;;;;;;3.92;97.13;99838.22;5007670;28;20036;-70
2023/10/25 08:41:06;;;;;;;0.93;0.90;;;;;;;3.97;97.10;99826.28;4990359;28;20042;-70
2023/10/25 08:43:37;;;;;;;0.88;0.88;;;;;;;3.97;97.19;99820.28;5007660;28;20026;-71
2023/10/25 08:46:03;;;;;;;0.93;0.68;;;;;;;4.00;97.18;99834.84;5007684;28;20022;-71
2023/10/25 08:48:30;;;;;;;0.70;0.70;;;;;;;4.13;96.39;99829.00;5007673;28;20033;-70
2023/10/25 08:50:56;;;;;;;1.45;0.70;;;;;;;4.02;96.65;99828.03;5022541;28;20030;-70
2023/10/25 08:53:24;;;;;;;0.50;0.50;;;;;;;4.02;97.04;99818.63;5006119;28;20022;-70
2023/10/25 08:55:51;;;;;;;0.75;0.75;;;;;;;4.11;96.70;99828.09;5007500;28;20037;-70
2023/10/25 08:58:18;;;;;;;0.43;0.43;;;;;;;4.12;96.56;99829.81;5007444;28;20014;-70
2023/10/25 09:00:43;;;;;;;1.42;0.85;;;;;;;4.13;97.00;99844.41;5007355;28;20022;-69
2023/10/25 09:03:31;;;;;;;0.65;0.60;;;;;;;4.29;95.58;99841.97;5007200;28;20026;-68
2023/10/25 09:06:04;;;;;;;1.25;1.17;;;;;;;4.16;96.46;99834.16;5005697;28;20049;-69
2023/10/25 09:08:31;;;;;;;0.82;0.55;;;;;;;4.06;97.24;99835.78;5006882;28;20092;-70
2023/10/25 09:11:08;;;;;;;0.50;0.50;;;;;;;4.07;97.66;99834.06;5006991;28;20031;-70
2023/10/25 09:13:35;;;;;;;1.90;1.45;;;;;;;4.22;97.18;99838.47;4989411;28;20026;-70
2023/10/25 09:16:10;;;;;;;0.88;0.88;;;;;;;4.18;97.15;99829.91;5007081;28;20049;-69
2023/10/25 09:18:37;;;;;;;0.75;0.75;;;;;;;4.06;97.78;99822.94;5005773;28;20033;-69
2023/10/25 09:21:04;;;;;;;1.08;0.90;;;;;;;4.16;98.00;99841.00;4989253;28;20050;-69
2023/10/25 09:23:30;;;;;;;1.83;1.30;;;;;;;4.18;97.86;99837.59;4988954;28;20033;-70
2023/10/25 09:25:58;;;;;;;1.75;1.40;;;;;;;4.20;97.87;99833.31;5005665;28;20030;-70
2023/10/25 09:28:27;;;;;;;1.33;0.80;;;;;;;4.18;97.96;99834.16;5005604;28;20029;-68
2023/10/25 09:30:57;;;;;;;0.60;0.60;;;;;;;4.11;97.85;99820.41;5006382;28;20098;-70
2023/10/25 09:33:23;;;;;;;0.60;0.60;;;;;;;4.23;97.29;99837.66;5021412;28;20034;-69
2023/10/25 09:35:51;;;;;;;0.63;0.63;;;;;;;4.26;97.46;99841.94;5006444;28;20023;-69
2023/10/25 09:38:16;;;;;;;0.60;0.60;;;;;;;4.19;97.97;99831.59;5004891;28;20041;-68
2023/10/25 09:40:43;;;;;;;0.98;0.93;;;;;;;4.30;97.54;99839.41;5006587;28;20089;-69
2023/10/25 09:43:15;;;;;;;1.23;0.50;;;;;;;4.25;97.91;99829.94;5021401;28;20025;-69
2023/10/25 09:45:42;;;;;;;10.55;1.05;;;;;;;4.19;98.03;99823.91;5004983;28;20022;-70
2023/10/25 09:48:11;;;;;;;0.50;0.50;;;;;;;4.33;98.10;99843.69;4988751;28;20022;-70
2023/10/25 09:50:43;;;;;;;0.70;0.70;;;;;;;4.26;98.23;99824.81;4988455;28;20023;-70
2023/10/25 09:53:20;;;;;;;0.60;0.60;;;;;;;4.34;98.12;99830.00;5006134;28;20034;-71
2023/10/25 09:55:54;;;;;;;1.27;1.08;;;;;;;4.37;98.26;99822.31;5006403;28;20065;-69
2023/10/25 09:58:22;;;;;;;0.68;0.68;;;;;;;4.40;98.20;99824.06;5005806;28;20102;-70
2023/10/25 10:00:48;;;;;;;1.20;0.93;;;;;;;4.45;98.01;99828.41;5006143;28;20026;-70
2023/10/25 10:03:32;;;;;;;0.90;0.85;;;;;;;4.46;98.17;99818.94;5006341;28;20030;-69
2023/10/25 10:06:11;;;;;;;0.40;0.40;;;;;;;4.56;97.80;99819.88;5004981;28;20026;-68
2023/10/25 10:08:47;;;;;;;0.85;0.85;;;;;;;4.58;97.51;99843.91;5004855;28;20049;-69
2023/10/25 10:11:17;;;;;;;1.08;0.98;;;;;;;4.55;97.26;99825.88;5006123;28;20033;-68
2023/10/25 10:13:43;;;;;;;0.60;0.60;;;;;;;4.57;97.19;99832.75;5004726;28;20026;-70
2023/10/25 10:16:11;;;;;;;0.60;0.60;;;;;;;4.67;96.18;99819.94;5006060;28;20026;-69
2023/10/25 10:18:47;;;;;;;0.63;0.63;;;;;;;4.73;95.86;99822.56;5006062;28;20195;-71
2023/10/25 10:21:16;;;;;;;0.40;0.40;;;;;;;4.50;96.50;99799.28;5021051;28;20124;-68
2023/10/25 10:23:49;;;;;;;0.70;0.70;;;;;;;4.53;96.42;99799.28;5006014;28;20101;-69
2023/10/25 10:26:43;;;;;;;1.42;1.20;;;;;;;4.57;96.86;99809.59;4987857;28;20080;-69
2023/10/25 10:29:36;;;;;;;0.63;0.63;;;;;;;4.63;97.55;99810.50;5006003;28;20022;-68
2023/10/25 10:32:04;;;;;;;0.50;0.50;;;;;;;4.63;97.30;99816.53;5004573;28;20073;-69
2023/10/25 10:34:37;;;;;;;0.50;0.50;;;;;;;4.71;97.01;99804.53;5005781;28;20053;-69
2023/10/25 10:37:10;;;;;;;1.45;0.80;;;;;;;4.59;97.42;99810.50;5005403;28;20033;-68
2023/10/25 10:39:55;;;;;;;0.75;0.60;;;;;;;4.64;97.09;99818.22;5007309;28;20022;-69
2023/10/25 10:42:28;;;;;;;0.82;0.82;;;;;;;4.64;97.46;99813.09;5010302;28;20049;-70
2023/10/25 10:45:15;;;;;;;1.10;1.00;;;;;;;4.72;97.37;99810.56;5008586;28;20393;-70
2023/10/25 10:47:47;;;;;;;0.65;0.60;;;;;;;4.81;96.51;99817.44;5009700;28;20026;-70
2023/10/25 10:50:23;;;;;;;0.77;0.77;;;;;;;4.70;97.23;99800.25;5009837;28;20026;-68
2023/10/25 10:52:50;;;;;;;1.95;1.08;;;;;;;4.73;96.68;99801.16;5009850;28;20033;-69
2023/10/25 10:55:25;;;;;;;2.10;1.48;;;;;;;4.74;96.96;99808.88;5009561;28;20022;-68
2023/10/25 10:57:52;;;;;;;0.43;0.43;;;;;;;4.76;97.13;99806.31;5009719;28;20463;-67
2023/10/25 11:00:18;;;;;;;3.58;1.67;;;;;;;4.74;97.53;99802.84;4992005;28;20064;-68
2023/10/25 11:02:48;;;;;;;1.10;0.77;;;;;;;4.71;97.71;99796.00;4991966;28;20026;-69
2023/10/25 11:05:15;;;;;;;1.05;0.90;;;;;;;4.71;97.95;99789.13;5008240;28;20101;-69
2023/10/25 11:07:41;;;;;;;0.47;0.45;;;;;;;4.76;97.98;99789.13;4991961;28;20033;-69
2023/10/25 11:10:07;;;;;;;0.50;0.50;;;;;;;4.76;97.76;99790.88;5009375;28;20033;-69
2023/10/25 11:12:32;;;;;;;0.45;0.45;;;;;;;4.64;97.90;99766.81;5009422;28;20030;-69
2023/10/25 11:15:03;;;;;;;2.45;1.00;;;;;;;4.78;97.63;99787.44;5008014;28;20026;-70
2023/10/25 11:17:29;;;;;;;1.65;1.30;;;;;;;4.83;97.12;99783.19;5009437;28;20038;-69
2023/10/25 11:19:55;;;;;;;0.75;0.75;;;;;;;4.80;98.04;99792.59;5009316;28;20023;-70
2023/10/25 11:22:20;;;;;;;0.60;0.60;;;;;;;4.82;97.85;99784.03;5009025;28;20048;-70
2023/10/25 11:24:51;;;;;;;1.83;0.50;;;;;;;4.88;98.10;99779.78;5008971;28;20105;-70
2023/10/25 11:27:16;;;;;;;0.70;0.70;;;;;;;4.86;98.24;99774.63;5024234;28;20026;-70
2023/10/25 11:29:42;;;;;;;0.55;0.55;;;;;;;4.88;98.01;99775.50;5009141;28;20029;-69
2023/10/25 11:32:12;;;;;;;0.82;0.82;;;;;;;4.92;98.47;99787.50;5007207;28;20018;-69
2023/10/25 11:34:41;;;;;;;1.02;0.93;;;;;;;4.94;98.19;99785.81;4991510;28;20049;-68
2023/10/25 11:37:07;;;;;;;1.35;1.25;;;;;;;4.92;98.56;99774.66;5008997;28;20022;-69
2023/10/25 11:39:53;;;;;;;2.42;1.20;;;;;;;4.92;98.50;99777.22;5008907;28;20089;-69
2023/10/25 11:42:19;;;;;;;1.42;0.90;;;;;;;4.96;98.27;99784.13;5008855;28;20090;-68